Costa Magica — IBQQ — position and weather

sailwx.info

Track history (hours):
 
Tides and Currents Weather Stations Pressure Air Temp Water Temp Dewpoint Dewpoint Depression Visibility Wind Speed Wind Dir Waves Ship Positions

Costa Magica

Last reported at 2018-Apr-20 08:40 UTC. Time now 2018-Apr-20 12:44 UTC.
Position N 43°21' E 005°20'.

Type: Ship. MMSI: 247113300.

Date/timePositionNaut miles runAvg speedWind from/ knotsBaromVisibWave heightAir tempDewpointWater temp
2018-Apr-20 08:40N 43°21' E 005°20'0 1.8
2018-Apr-20 08:30N 43°21' E 005°20'3 6.6
2018-Apr-20 08:00N 43°19' E 005°16'816.5
2018-Apr-20 07:30N 43°13' E 005°09'815.5
2018-Apr-20 07:00N 43°06' E 005°03'714.9
2018-Apr-20 06:30N 43°00' E 004°57'714.0
2018-Apr-20 06:00N 42°55' E 004°51'714.6
2018-Apr-20 05:30N 42°49' E 004°45'713.9
2018-Apr-20 05:00N 42°43' E 004°39'9817.1
2018-Apr-19 23:17N 41°27' E 003°18'617.6
2018-Apr-19 22:58N 41°22' E 003°13'817.9
2018-Apr-19 22:31N 41°16' E 003°06'917.7
2018-Apr-19 22:01N 41°09' E 002°59'917.9
2018-Apr-19 21:30N 41°02' E 002°52'917.8
2018-Apr-19 21:00N 40°55' E 002°44'1117.6
2018-Apr-19 20:24N 40°47' E 002°36'717.3
2018-Apr-19 20:00N 40°41' E 002°30'816.7
2018-Apr-19 19:30N 40°35' E 002°23'916.7
2018-Apr-19 19:00N 40°28' E 002°16'816.9
2018-Apr-19 18:30N 40°22' E 002°09'917.5
2018-Apr-19 18:00N 40°15' E 002°02'917.8
2018-Apr-19 17:30N 40°08' E 001°55'15617.6
2018-Apr-19 08:37N 38°03' W 000°06'217.1
2018-Apr-19 08:30N 38°01' W 000°08'917.0
2018-Apr-19 08:00N 37°54' W 000°13'917.1
2018-Apr-19 07:30N 37°47' W 000°19'917.4
2018-Apr-19 07:00N 37°40' W 000°25'917.5
2018-Apr-19 06:30N 37°32' W 000°32'918.5
2018-Apr-19 06:00N 37°26' W 000°40'918.4
2018-Apr-19 05:30N 37°20' W 000°49'918.2
2018-Apr-19 05:00N 37°14' W 000°58'918.1
2018-Apr-19 04:29N 37°08' W 001°07'20518.2
2018-Apr-18 17:13N 36°05' W 005°10'420.3
2018-Apr-18 17:00N 36°05' W 005°15'714.3
2018-Apr-18 16:31N 36°08' W 005°23'1 0.2
2018-Apr-18 09:46N 36°09' W 005°22'0 0.0
2018-Apr-18 09:28N 36°09' W 005°22'0 0.4
2018-Apr-18 08:59N 36°09' W 005°22'1 2.9
2018-Apr-18 08:30N 36°07' W 005°22'510.0
2018-Apr-18 08:00N 36°02' W 005°22'715.0
2018-Apr-18 07:30N 35°58' W 005°29'2315.8
2018-Apr-18 06:04N 35°55' W 005°57'117.7
2018-Apr-18 06:00N 35°55' W 005°59'15516.8
2018-Apr-17 20:45N 34°18' W 008°26'417.1
2018-Apr-17 20:30N 34°15' W 008°30'917.2
2018-Apr-17 19:58N 34°09' W 008°38'1117.4
2018-Apr-17 19:19N 34°01' W 008°48'516.9
2018-Apr-17 19:00N 33°58' W 008°53'817.1
2018-Apr-17 18:30N 33°52' W 009°01'9418.3
2018-Apr-17 13:22N 32°50' W 010°25'819.3
2018-Apr-17 12:58N 32°45' W 010°32'25619.1
2018-Apr-16 23:34N 29°55' W 014°16'118.9
2018-Apr-16 23:29N 29°54' W 014°17'919.2
2018-Apr-16 23:00N 29°48' W 014°25'1019.1
2018-Apr-16 22:30N 29°42' W 014°34'918.7
2018-Apr-16 22:00N 29°35' W 014°41'918.7
2018-Apr-16 21:30N 29°29' W 014°49'918.9
2018-Apr-16 21:00N 29°22' W 014°57'918.5
2018-Apr-16 20:30N 29°16' W 015°05'1018.9
2018-Apr-16 19:58N 29°10' W 015°14'919.2
2018-Apr-16 19:30N 29°04' W 015°22'1019.2
2018-Apr-16 19:00N 28°58' W 015°30'1019.3
2018-Apr-16 18:29N 28°51' W 015°39'919.2
2018-Apr-16 18:00N 28°45' W 015°47'919.1
2018-Apr-16 17:31N 28°39' W 015°55'918.7
2018-Apr-16 17:00N 28°33' W 016°03'816.5
2018-Apr-16 16:30N 28°29' W 016°11'3 5.8
2018-Apr-16 15:59N 28°28' W 016°14'0 0.0
2018-Apr-16 15:29N 28°28' W 016°14'0 0.0
2018-Apr-16 14:59N 28°28' W 016°14'0 0.0
2018-Apr-16 14:29N 28°28' W 016°14'0 0.0
2018-Apr-16 13:59N 28°28' W 016°14'0 0.0
2018-Apr-16 13:29N 28°28' W 016°14'0 0.0
2018-Apr-16 12:59N 28°28' W 016°14'0 0.0
2018-Apr-16 12:29N 28°28' W 016°14'0 0.0
2018-Apr-16 11:59N 28°28' W 016°14'0 0.0
2018-Apr-16 11:29N 28°28' W 016°14'0 0.0
2018-Apr-16 10:59N 28°28' W 016°14'0 0.0
2018-Apr-16 10:29N 28°28' W 016°14'0 0.0
2018-Apr-16 09:59N 28°28' W 016°14'0 0.0
2018-Apr-16 09:29N 28°28' W 016°14'0 0.0
2018-Apr-16 08:59N 28°28' W 016°14'0 0.0
2018-Apr-16 08:29N 28°28' W 016°14'0 0.0
2018-Apr-16 07:32N 28°28' W 016°14'0 0.0
2018-Apr-16 07:08N 28°28' W 016°14'0 0.0
2018-Apr-16 06:48N 28°28' W 016°14'0 1.6
2018-Apr-16 06:30N 28°29' W 016°14'2 3.4
2018-Apr-16 06:00N 28°28' W 016°13'713.7
2018-Apr-16 05:30N 28°21' W 016°15'815.4
2018-Apr-16 05:00N 28°14' W 016°19'814.9
2018-Apr-16 04:30N 28°08' W 016°22'815.2
2018-Apr-16 04:00N 28°02' W 016°28'  
Track history (hours):
 
Tides and Currents Weather Stations Pressure Air Temp Water Temp Dewpoint Dewpoint Depression Visibility Wind Speed Wind Dir Waves Ship Positions

Costa Magica

Last reported at 2018-Apr-20 08:40 UTC. Time now 2018-Apr-20 12:44 UTC.
Position N 43°21' E 005°20'.

Type: Ship. MMSI: 247113300.

Date/timePositionNaut miles runAvg speedWind from/ knotsBaromVisibWave heightAir tempDewpointWater temp
2018-Apr-20 08:40N 43°21' E 005°20'0 1.8
2018-Apr-20 08:30N 43°21' E 005°20'3 6.6
2018-Apr-20 08:00N 43°19' E 005°16'816.5
2018-Apr-20 07:30N 43°13' E 005°09'815.5
2018-Apr-20 07:00N 43°06' E 005°03'714.9
2018-Apr-20 06:30N 43°00' E 004°57'714.0
2018-Apr-20 06:00N 42°55' E 004°51'714.6
2018-Apr-20 05:30N 42°49' E 004°45'713.9
2018-Apr-20 05:00N 42°43' E 004°39'9817.1
2018-Apr-19 23:17N 41°27' E 003°18'617.6
2018-Apr-19 22:58N 41°22' E 003°13'817.9
2018-Apr-19 22:31N 41°16' E 003°06'917.7
2018-Apr-19 22:01N 41°09' E 002°59'917.9
2018-Apr-19 21:30N 41°02' E 002°52'917.8
2018-Apr-19 21:00N 40°55' E 002°44'1117.6
2018-Apr-19 20:24N 40°47' E 002°36'717.3
2018-Apr-19 20:00N 40°41' E 002°30'816.7
2018-Apr-19 19:30N 40°35' E 002°23'916.7
2018-Apr-19 19:00N 40°28' E 002°16'816.9
2018-Apr-19 18:30N 40°22' E 002°09'917.5
2018-Apr-19 18:00N 40°15' E 002°02'917.8
2018-Apr-19 17:30N 40°08' E 001°55'15617.6
2018-Apr-19 08:37N 38°03' W 000°06'217.1
2018-Apr-19 08:30N 38°01' W 000°08'917.0
2018-Apr-19 08:00N 37°54' W 000°13'917.1
2018-Apr-19 07:30N 37°47' W 000°19'917.4
2018-Apr-19 07:00N 37°40' W 000°25'917.5
2018-Apr-19 06:30N 37°32' W 000°32'918.5
2018-Apr-19 06:00N 37°26' W 000°40'918.4
2018-Apr-19 05:30N 37°20' W 000°49'918.2
2018-Apr-19 05:00N 37°14' W 000°58'918.1
2018-Apr-19 04:29N 37°08' W 001°07'20518.2
2018-Apr-18 17:13N 36°05' W 005°10'420.3
2018-Apr-18 17:00N 36°05' W 005°15'714.3
2018-Apr-18 16:31N 36°08' W 005°23'1 0.2
2018-Apr-18 09:46N 36°09' W 005°22'0 0.0
2018-Apr-18 09:28N 36°09' W 005°22'0 0.4
2018-Apr-18 08:59N 36°09' W 005°22'1 2.9
2018-Apr-18 08:30N 36°07' W 005°22'510.0
2018-Apr-18 08:00N 36°02' W 005°22'715.0
2018-Apr-18 07:30N 35°58' W 005°29'2315.8
2018-Apr-18 06:04N 35°55' W 005°57'117.7
2018-Apr-18 06:00N 35°55' W 005°59'15516.8
2018-Apr-17 20:45N 34°18' W 008°26'417.1
2018-Apr-17 20:30N 34°15' W 008°30'917.2
2018-Apr-17 19:58N 34°09' W 008°38'1117.4
2018-Apr-17 19:19N 34°01' W 008°48'516.9
2018-Apr-17 19:00N 33°58' W 008°53'817.1
2018-Apr-17 18:30N 33°52' W 009°01'9418.3
2018-Apr-17 13:22N 32°50' W 010°25'819.3
2018-Apr-17 12:58N 32°45' W 010°32'25619.1
2018-Apr-16 23:34N 29°55' W 014°16'118.9
2018-Apr-16 23:29N 29°54' W 014°17'919.2
2018-Apr-16 23:00N 29°48' W 014°25'1019.1
2018-Apr-16 22:30N 29°42' W 014°34'918.7
2018-Apr-16 22:00N 29°35' W 014°41'918.7
2018-Apr-16 21:30N 29°29' W 014°49'918.9
2018-Apr-16 21:00N 29°22' W 014°57'918.5
2018-Apr-16 20:30N 29°16' W 015°05'1018.9
2018-Apr-16 19:58N 29°10' W 015°14'919.2
2018-Apr-16 19:30N 29°04' W 015°22'1019.2
2018-Apr-16 19:00N 28°58' W 015°30'1019.3
2018-Apr-16 18:29N 28°51' W 015°39'919.2
2018-Apr-16 18:00N 28°45' W 015°47'919.1
2018-Apr-16 17:31N 28°39' W 015°55'918.7
2018-Apr-16 17:00N 28°33' W 016°03'816.5
2018-Apr-16 16:30N 28°29' W 016°11'3 5.8
2018-Apr-16 15:59N 28°28' W 016°14'0 0.0
2018-Apr-16 15:29N 28°28' W 016°14'0 0.0
2018-Apr-16 14:59N 28°28' W 016°14'0 0.0
2018-Apr-16 14:29N 28°28' W 016°14'0 0.0
2018-Apr-16 13:59N 28°28' W 016°14'0 0.0
2018-Apr-16 13:29N 28°28' W 016°14'0 0.0
2018-Apr-16 12:59N 28°28' W 016°14'0 0.0
2018-Apr-16 12:29N 28°28' W 016°14'0 0.0
2018-Apr-16 11:59N 28°28' W 016°14'0 0.0
2018-Apr-16 11:29N 28°28' W 016°14'0 0.0
2018-Apr-16 10:59N 28°28' W 016°14'0 0.0
2018-Apr-16 10:29N 28°28' W 016°14'0 0.0
2018-Apr-16 09:59N 28°28' W 016°14'0 0.0
2018-Apr-16 09:29N 28°28' W 016°14'0 0.0
2018-Apr-16 08:59N 28°28' W 016°14'0 0.0
2018-Apr-16 08:29N 28°28' W 016°14'0 0.0
2018-Apr-16 07:32N 28°28' W 016°14'0 0.0
2018-Apr-16 07:08N 28°28' W 016°14'0 0.0
2018-Apr-16 06:48N 28°28' W 016°14'0 1.6
2018-Apr-16 06:30N 28°29' W 016°14'2 3.4
2018-Apr-16 06:00N 28°28' W 016°13'713.7
2018-Apr-16 05:30N 28°21' W 016°15'815.4
2018-Apr-16 05:00N 28°14' W 016°19'814.9
2018-Apr-16 04:30N 28°08' W 016°22'815.2
2018-Apr-16 04:00N 28°02' W 016°28'  

Dump ship's entire track history